sensor_id;sensor_type;location;lat;lon;timestamp;P1;durP1;ratioP1;P2;durP2;ratioP2
19800;SDS011;10060;48.274;12.214;2024-01-16T00:02:16;5.87;;;4.80;;
19800;SDS011;10060;48.274;12.214;2024-01-16T00:05:19;6.73;;;3.97;;
19800;SDS011;10060;48.274;12.214;2024-01-16T00:08:21;5.93;;;4.80;;
19800;SDS011;10060;48.274;12.214;2024-01-16T00:11:23;4.77;;;4.37;;
19800;SDS011;10060;48.274;12.214;2024-01-16T00:14:26;5.37;;;4.57;;
19800;SDS011;10060;48.274;12.214;2024-01-16T00:17:28;5.77;;;4.93;;
19800;SDS011;10060;48.274;12.214;2024-01-16T00:20:30;7.10;;;5.17;;
19800;SDS011;10060;48.274;12.214;2024-01-16T00:23:32;6.10;;;4.83;;
19800;SDS011;10060;48.274;12.214;2024-01-16T00:26:35;5.10;;;4.60;;
19800;SDS011;10060;48.274;12.214;2024-01-16T00:29:39;3.90;;;3.60;;
19800;SDS011;10060;48.274;12.214;2024-01-16T00:32:41;3.67;;;3.37;;
19800;SDS011;10060;48.274;12.214;2024-01-16T00:35:43;4.37;;;3.97;;
19800;SDS011;10060;48.274;12.214;2024-01-16T00:38:45;7.60;;;4.50;;
19800;SDS011;10060;48.274;12.214;2024-01-16T00:41:47;6.70;;;3.97;;
19800;SDS011;10060;48.274;12.214;2024-01-16T00:44:52;3.90;;;3.60;;
19800;SDS011;10060;48.274;12.214;2024-01-16T00:47:54;3.80;;;3.43;;
19800;SDS011;10060;48.274;12.214;2024-01-16T00:50:56;4.23;;;3.80;;
19800;SDS011;10060;48.274;12.214;2024-01-16T00:53:58;6.10;;;4.30;;
19800;SDS011;10060;48.274;12.214;2024-01-16T00:57:00;4.60;;;4.20;;
19800;SDS011;10060;48.274;12.214;2024-01-16T01:00:04;5.17;;;4.33;;
19800;SDS011;10060;48.274;12.214;2024-01-16T01:03:06;5.50;;;4.27;;
19800;SDS011;10060;48.274;12.214;2024-01-16T01:06:08;4.40;;;4.00;;
19800;SDS011;10060;48.274;12.214;2024-01-16T01:09:10;8.83;;;4.60;;
19800;SDS011;10060;48.274;12.214;2024-01-16T01:12:13;4.93;;;4.23;;
19800;SDS011;10060;48.274;12.214;2024-01-16T01:15:16;7.77;;;4.97;;
19800;SDS011;10060;48.274;12.214;2024-01-16T01:18:18;4.93;;;3.93;;
19800;SDS011;10060;48.274;12.214;2024-01-16T01:21:20;6.60;;;4.57;;
19800;SDS011;10060;48.274;12.214;2024-01-16T01:24:22;6.00;;;4.50;;
19800;SDS011;10060;48.274;12.214;2024-01-16T01:27:25;4.87;;;4.43;;
19800;SDS011;10060;48.274;12.214;2024-01-16T01:30:28;4.80;;;3.67;;
19800;SDS011;10060;48.274;12.214;2024-01-16T01:33:30;5.27;;;4.17;;
19800;SDS011;10060;48.274;12.214;2024-01-16T01:36:32;5.00;;;3.77;;
19800;SDS011;10060;48.274;12.214;2024-01-16T01:39:34;4.80;;;4.30;;
19800;SDS011;10060;48.274;12.214;2024-01-16T01:42:36;4.43;;;3.83;;
19800;SDS011;10060;48.274;12.214;2024-01-16T01:45:40;4.33;;;3.93;;
19800;SDS011;10060;48.274;12.214;2024-01-16T01:48:42;3.97;;;3.67;;
19800;SDS011;10060;48.274;12.214;2024-01-16T01:51:45;5.73;;;4.00;;
19800;SDS011;10060;48.274;12.214;2024-01-16T01:54:47;3.70;;;3.40;;
19800;SDS011;10060;48.274;12.214;2024-01-16T01:57:50;6.17;;;4.20;;
19800;SDS011;10060;48.274;12.214;2024-01-16T02:00:53;4.40;;;4.00;;
19800;SDS011;10060;48.274;12.214;2024-01-16T02:03:55;5.57;;;4.10;;
19800;SDS011;10060;48.274;12.214;2024-01-16T02:06:57;3.97;;;3.57;;
19800;SDS011;10060;48.274;12.214;2024-01-16T02:09:59;5.70;;;3.60;;
19800;SDS011;10060;48.274;12.214;2024-01-16T02:13:02;4.33;;;3.93;;
19800;SDS011;10060;48.274;12.214;2024-01-16T02:16:05;3.47;;;3.17;;
19800;SDS011;10060;48.274;12.214;2024-01-16T02:19:07;4.37;;;3.63;;
19800;SDS011;10060;48.274;12.214;2024-01-16T02:22:11;3.83;;;3.50;;
19800;SDS011;10060;48.274;12.214;2024-01-16T02:25:17;4.50;;;3.73;;
19800;SDS011;10060;48.274;12.214;2024-01-16T02:28:19;3.93;;;3.57;;
19800;SDS011;10060;48.274;12.214;2024-01-16T02:31:21;5.03;;;3.93;;
19800;SDS011;10060;48.274;12.214;2024-01-16T02:34:24;4.80;;;3.63;;
19800;SDS011;10060;48.274;12.214;2024-01-16T02:37:26;4.93;;;4.00;;
19800;SDS011;10060;48.274;12.214;2024-01-16T02:40:29;4.60;;;3.80;;
19800;SDS011;10060;48.274;12.214;2024-01-16T02:43:31;6.07;;;4.03;;
19800;SDS011;10060;48.274;12.214;2024-01-16T02:46:33;4.03;;;3.70;;
19800;SDS011;10060;48.274;12.214;2024-01-16T02:49:36;4.47;;;3.60;;
19800;SDS011;10060;48.274;12.214;2024-01-16T02:52:40;5.50;;;4.23;;
19800;SDS011;10060;48.274;12.214;2024-01-16T02:55:43;4.10;;;3.67;;
19800;SDS011;10060;48.274;12.214;2024-01-16T02:58:45;4.07;;;3.67;;
19800;SDS011;10060;48.274;12.214;2024-01-16T03:01:47;3.93;;;3.43;;
19800;SDS011;10060;48.274;12.214;2024-01-16T03:04:49;4.07;;;3.57;;
19800;SDS011;10060;48.274;12.214;2024-01-16T03:07:51;4.50;;;4.03;;
19800;SDS011;10060;48.274;12.214;2024-01-16T03:10:55;4.40;;;4.00;;
19800;SDS011;10060;48.274;12.214;2024-01-16T03:13:57;3.93;;;3.60;;
19800;SDS011;10060;48.274;12.214;2024-01-16T03:17:00;3.70;;;3.40;;
19800;SDS011;10060;48.274;12.214;2024-01-16T03:20:02;4.93;;;3.93;;
19800;SDS011;10060;48.274;12.214;2024-01-16T03:23:05;4.07;;;3.67;;
19800;SDS011;10060;48.274;12.214;2024-01-16T03:26:11;6.03;;;3.80;;
19800;SDS011;10060;48.274;12.214;2024-01-16T03:29:13;3.67;;;3.20;;
19800;SDS011;10060;48.274;12.214;2024-01-16T03:32:16;4.17;;;3.50;;
19800;SDS011;10060;48.274;12.214;2024-01-16T03:35:18;4.93;;;3.97;;
19800;SDS011;10060;48.274;12.214;2024-01-16T03:38:20;5.10;;;3.77;;
19800;SDS011;10060;48.274;12.214;2024-01-16T03:41:23;3.90;;;3.27;;
19800;SDS011;10060;48.274;12.214;2024-01-16T03:44:25;5.87;;;3.70;;
19800;SDS011;10060;48.274;12.214;2024-01-16T03:47:28;6.13;;;4.43;;
19800;SDS011;10060;48.274;12.214;2024-01-16T03:50:30;5.03;;;4.00;;
19800;SDS011;10060;48.274;12.214;2024-01-16T03:53:33;4.27;;;3.87;;
19800;SDS011;10060;48.274;12.214;2024-01-16T03:56:37;4.60;;;4.20;;
19800;SDS011;10060;48.274;12.214;2024-01-16T03:59:39;4.37;;;3.93;;
19800;SDS011;10060;48.274;12.214;2024-01-16T04:02:41;4.53;;;4.13;;
19800;SDS011;10060;48.274;12.214;2024-01-16T04:05:43;5.27;;;4.33;;
19800;SDS011;10060;48.274;12.214;2024-01-16T04:08:45;5.13;;;3.77;;
19800;SDS011;10060;48.274;12.214;2024-01-16T04:11:50;4.43;;;4.03;;
19800;SDS011;10060;48.274;12.214;2024-01-16T04:14:53;5.53;;;4.17;;
19800;SDS011;10060;48.274;12.214;2024-01-16T04:17:55;4.30;;;4.00;;
19800;SDS011;10060;48.274;12.214;2024-01-16T04:20:57;4.90;;;4.40;;
19800;SDS011;10060;48.274;12.214;2024-01-16T04:23:59;5.13;;;4.27;;
19800;SDS011;10060;48.274;12.214;2024-01-16T04:27:02;4.80;;;4.30;;
19800;SDS011;10060;48.274;12.214;2024-01-16T04:30:05;5.90;;;4.50;;
19800;SDS011;10060;48.274;12.214;2024-01-16T04:33:08;7.83;;;4.43;;
19800;SDS011;10060;48.274;12.214;2024-01-16T04:36:10;6.00;;;4.50;;
19800;SDS011;10060;48.274;12.214;2024-01-16T04:39:12;6.60;;;4.47;;
19800;SDS011;10060;48.274;12.214;2024-01-16T04:42:15;6.37;;;4.13;;
19800;SDS011;10060;48.274;12.214;2024-01-16T04:45:18;6.73;;;4.23;;
19800;SDS011;10060;48.274;12.214;2024-01-16T04:48:20;6.13;;;4.87;;
19800;SDS011;10060;48.274;12.214;2024-01-16T04:51:22;4.50;;;4.10;;
19800;SDS011;10060;48.274;12.214;2024-01-16T04:54:25;4.40;;;4.00;;
19800;SDS011;10060;48.274;12.214;2024-01-16T04:57:28;4.90;;;4.40;;
19800;SDS011;10060;48.274;12.214;2024-01-16T05:00:30;5.10;;;4.47;;
19800;SDS011;10060;48.274;12.214;2024-01-16T05:03:32;5.50;;;4.27;;
19800;SDS011;10060;48.274;12.214;2024-01-16T05:06:34;5.63;;;4.70;;
19800;SDS011;10060;48.274;12.214;2024-01-16T05:09:36;5.00;;;4.50;;
19800;SDS011;10060;48.274;12.214;2024-01-16T05:12:40;5.03;;;4.60;;
19800;SDS011;10060;48.274;12.214;2024-01-16T05:15:42;5.60;;;4.60;;
19800;SDS011;10060;48.274;12.214;2024-01-16T05:18:44;7.67;;;4.27;;
19800;SDS011;10060;48.274;12.214;2024-01-16T05:21:47;7.70;;;4.80;;
19800;SDS011;10060;48.274;12.214;2024-01-16T05:24:49;4.80;;;4.37;;
19800;SDS011;10060;48.274;12.214;2024-01-16T05:27:52;10.40;;;4.63;;
19800;SDS011;10060;48.274;12.214;2024-01-16T05:30:54;7.37;;;5.00;;
19800;SDS011;10060;48.274;12.214;2024-01-16T05:33:56;6.40;;;5.07;;
19800;SDS011;10060;48.274;12.214;2024-01-16T05:36:59;6.10;;;4.90;;
19800;SDS011;10060;48.274;12.214;2024-01-16T05:40:01;6.13;;;5.03;;
19800;SDS011;10060;48.274;12.214;2024-01-16T05:43:05;7.37;;;4.93;;
19800;SDS011;10060;48.274;12.214;2024-01-16T05:46:07;5.97;;;5.17;;
19800;SDS011;10060;48.274;12.214;2024-01-16T05:49:09;6.87;;;5.77;;
19800;SDS011;10060;48.274;12.214;2024-01-16T05:52:11;5.67;;;5.10;;
19800;SDS011;10060;48.274;12.214;2024-01-16T05:55:14;6.53;;;5.10;;
19800;SDS011;10060;48.274;12.214;2024-01-16T05:58:17;6.50;;;4.93;;
19800;SDS011;10060;48.274;12.214;2024-01-16T06:01:19;5.73;;;5.07;;
19800;SDS011;10060;48.274;12.214;2024-01-16T06:04:21;6.80;;;5.37;;
19800;SDS011;10060;48.274;12.214;2024-01-16T06:07:23;6.80;;;5.67;;
19800;SDS011;10060;48.274;12.214;2024-01-16T06:10:25;5.90;;;5.20;;
19800;SDS011;10060;48.274;12.214;2024-01-16T06:13:29;7.00;;;5.27;;
19800;SDS011;10060;48.274;12.214;2024-01-16T06:16:32;6.67;;;5.37;;
19800;SDS011;10060;48.274;12.214;2024-01-16T06:19:35;5.80;;;5.20;;
19800;SDS011;10060;48.274;12.214;2024-01-16T06:22:37;7.27;;;5.27;;
19800;SDS011;10060;48.274;12.214;2024-01-16T06:25:39;6.50;;;5.63;;
19800;SDS011;10060;48.274;12.214;2024-01-16T06:28:42;10.70;;;5.47;;
19800;SDS011;10060;48.274;12.214;2024-01-16T06:31:44;7.37;;;5.30;;
19800;SDS011;10060;48.274;12.214;2024-01-16T06:34:46;6.33;;;4.77;;
19800;SDS011;10060;48.274;12.214;2024-01-16T06:37:48;6.93;;;5.37;;
19800;SDS011;10060;48.274;12.214;2024-01-16T06:40:50;6.33;;;5.47;;
19800;SDS011;10060;48.274;12.214;2024-01-16T06:43:54;6.87;;;4.83;;
19800;SDS011;10060;48.274;12.214;2024-01-16T06:46:56;6.27;;;5.07;;
19800;SDS011;10060;48.274;12.214;2024-01-16T06:49:58;7.03;;;5.07;;
19800;SDS011;10060;48.274;12.214;2024-01-16T06:53:00;9.30;;;4.60;;
19800;SDS011;10060;48.274;12.214;2024-01-16T06:56:03;9.07;;;5.37;;
19800;SDS011;10060;48.274;12.214;2024-01-16T06:59:06;8.53;;;5.00;;
19800;SDS011;10060;48.274;12.214;2024-01-16T07:02:08;7.37;;;5.27;;
19800;SDS011;10060;48.274;12.214;2024-01-16T07:05:11;7.00;;;5.33;;
19800;SDS011;10060;48.274;12.214;2024-01-16T07:08:13;7.80;;;5.30;;
19800;SDS011;10060;48.274;12.214;2024-01-16T07:11:15;7.50;;;5.40;;
19800;SDS011;10060;48.274;12.214;2024-01-16T07:14:18;6.73;;;4.90;;
19800;SDS011;10060;48.274;12.214;2024-01-16T07:17:20;5.67;;;4.87;;
19800;SDS011;10060;48.274;12.214;2024-01-16T07:20:22;6.47;;;4.87;;
19800;SDS011;10060;48.274;12.214;2024-01-16T07:23:24;7.10;;;5.37;;
19800;SDS011;10060;48.274;12.214;2024-01-16T07:26:27;5.77;;;4.80;;
19800;SDS011;10060;48.274;12.214;2024-01-16T07:29:31;10.33;;;5.90;;
19800;SDS011;10060;48.274;12.214;2024-01-16T07:32:34;7.63;;;6.27;;
19800;SDS011;10060;48.274;12.214;2024-01-16T07:35:36;6.03;;;4.77;;
19800;SDS011;10060;48.274;12.214;2024-01-16T07:38:41;12.03;;;5.87;;
19800;SDS011;10060;48.274;12.214;2024-01-16T07:41:43;6.27;;;5.20;;
19800;SDS011;10060;48.274;12.214;2024-01-16T07:44:46;6.30;;;5.43;;
19800;SDS011;10060;48.274;12.214;2024-01-16T07:47:48;6.80;;;5.30;;
19800;SDS011;10060;48.274;12.214;2024-01-16T07:50:50;5.10;;;4.57;;
19800;SDS011;10060;48.274;12.214;2024-01-16T07:54:03;7.43;;;5.00;;
19800;SDS011;10060;48.274;12.214;2024-01-16T07:57:06;8.07;;;6.10;;
19800;SDS011;10060;48.274;12.214;2024-01-16T08:00:10;7.10;;;4.67;;
19800;SDS011;10060;48.274;12.214;2024-01-16T08:03:12;9.77;;;5.77;;
19800;SDS011;10060;48.274;12.214;2024-01-16T08:06:15;7.73;;;5.33;;
19800;SDS011;10060;48.274;12.214;2024-01-16T08:09:17;7.53;;;5.43;;
19800;SDS011;10060;48.274;12.214;2024-01-16T08:12:20;11.07;;;5.90;;
19800;SDS011;10060;48.274;12.214;2024-01-16T08:15:23;8.47;;;5.80;;
19800;SDS011;10060;48.274;12.214;2024-01-16T08:18:25;8.30;;;5.70;;
19800;SDS011;10060;48.274;12.214;2024-01-16T08:21:27;6.70;;;5.80;;
19800;SDS011;10060;48.274;12.214;2024-01-16T08:24:29;9.03;;;5.27;;
19800;SDS011;10060;48.274;12.214;2024-01-16T08:27:31;7.83;;;5.33;;
19800;SDS011;10060;48.274;12.214;2024-01-16T08:30:35;6.63;;;5.30;;
19800;SDS011;10060;48.274;12.214;2024-01-16T08:33:37;7.97;;;5.10;;
19800;SDS011;10060;48.274;12.214;2024-01-16T08:36:39;9.20;;;5.53;;
19800;SDS011;10060;48.274;12.214;2024-01-16T08:39:41;8.70;;;5.40;;
19800;SDS011;10060;48.274;12.214;2024-01-16T08:42:43;7.50;;;5.13;;
19800;SDS011;10060;48.274;12.214;2024-01-16T08:45:47;7.20;;;5.20;;
19800;SDS011;10060;48.274;12.214;2024-01-16T08:48:49;9.33;;;5.50;;
19800;SDS011;10060;48.274;12.214;2024-01-16T08:51:51;6.97;;;5.07;;
19800;SDS011;10060;48.274;12.214;2024-01-16T08:54:53;8.00;;;5.10;;
19800;SDS011;10060;48.274;12.214;2024-01-16T08:57:55;10.17;;;4.73;;
19800;SDS011;10060;48.274;12.214;2024-01-16T09:00:58;6.77;;;4.90;;
19800;SDS011;10060;48.274;12.214;2024-01-16T09:04:00;6.93;;;5.37;;
19800;SDS011;10060;48.274;12.214;2024-01-16T09:07:03;8.20;;;5.27;;
19800;SDS011;10060;48.274;12.214;2024-01-16T09:10:05;10.70;;;5.10;;
19800;SDS011;10060;48.274;12.214;2024-01-16T09:13:07;5.47;;;4.60;;
19800;SDS011;10060;48.274;12.214;2024-01-16T09:16:11;6.33;;;4.97;;
19800;SDS011;10060;48.274;12.214;2024-01-16T09:19:13;6.70;;;5.27;;
19800;SDS011;10060;48.274;12.214;2024-01-16T09:22:16;7.13;;;4.63;;
19800;SDS011;10060;48.274;12.214;2024-01-16T09:25:18;7.10;;;4.80;;
19800;SDS011;10060;48.274;12.214;2024-01-16T09:28:21;6.63;;;5.23;;
19800;SDS011;10060;48.274;12.214;2024-01-16T09:31:24;6.30;;;4.57;;
19800;SDS011;10060;48.274;12.214;2024-01-16T09:34:26;7.97;;;4.70;;
19800;SDS011;10060;48.274;12.214;2024-01-16T09:37:28;5.30;;;4.47;;
19800;SDS011;10060;48.274;12.214;2024-01-16T09:40:30;9.70;;;4.40;;
19800;SDS011;10060;48.274;12.214;2024-01-16T09:43:33;8.43;;;4.50;;
19800;SDS011;10060;48.274;12.214;2024-01-16T09:46:37;5.70;;;4.20;;
19800;SDS011;10060;48.274;12.214;2024-01-16T09:49:40;5.10;;;4.57;;
19800;SDS011;10060;48.274;12.214;2024-01-16T09:52:42;6.53;;;4.63;;
19800;SDS011;10060;48.274;12.214;2024-01-16T09:55:44;7.87;;;4.77;;
19800;SDS011;10060;48.274;12.214;2024-01-16T09:58:48;6.50;;;4.40;;
19800;SDS011;10060;48.274;12.214;2024-01-16T10:01:52;5.70;;;4.60;;
19800;SDS011;10060;48.274;12.214;2024-01-16T10:04:56;11.87;;;4.63;;
19800;SDS011;10060;48.274;12.214;2024-01-16T10:07:58;6.00;;;4.23;;
19800;SDS011;10060;48.274;12.214;2024-01-16T10:11:00;5.70;;;4.30;;
19800;SDS011;10060;48.274;12.214;2024-01-16T10:14:02;6.70;;;4.00;;
19800;SDS011;10060;48.274;12.214;2024-01-16T10:17:06;4.20;;;3.83;;
19800;SDS011;10060;48.274;12.214;2024-01-16T10:20:14;7.17;;;4.00;;
19800;SDS011;10060;48.274;12.214;2024-01-16T10:23:22;9.27;;;4.07;;
19800;SDS011;10060;48.274;12.214;2024-01-16T10:26:24;4.57;;;3.60;;
19800;SDS011;10060;48.274;12.214;2024-01-16T10:29:26;9.80;;;4.10;;
19800;SDS011;10060;48.274;12.214;2024-01-16T10:32:30;6.00;;;4.13;;
19800;SDS011;10060;48.274;12.214;2024-01-16T10:35:32;9.33;;;4.47;;
19800;SDS011;10060;48.274;12.214;2024-01-16T10:38:34;11.53;;;6.70;;
19800;SDS011;10060;48.274;12.214;2024-01-16T10:41:38;15.20;;;6.80;;
19800;SDS011;10060;48.274;12.214;2024-01-16T10:44:45;11.93;;;6.60;;
19800;SDS011;10060;48.274;12.214;2024-01-16T10:48:01;6.10;;;4.50;;
19800;SDS011;10060;48.274;12.214;2024-01-16T10:51:04;5.50;;;4.23;;
19800;SDS011;10060;48.274;12.214;2024-01-16T10:54:07;6.40;;;4.00;;
19800;SDS011;10060;48.274;12.214;2024-01-16T10:57:14;7.07;;;4.30;;
19800;SDS011;10060;48.274;12.214;2024-01-16T11:00:18;7.93;;;4.43;;
19800;SDS011;10060;48.274;12.214;2024-01-16T11:03:24;5.73;;;4.33;;
19800;SDS011;10060;48.274;12.214;2024-01-16T11:06:26;8.70;;;4.40;;
19800;SDS011;10060;48.274;12.214;2024-01-16T11:09:29;7.47;;;4.50;;
19800;SDS011;10060;48.274;12.214;2024-01-16T11:12:31;9.37;;;4.23;;
19800;SDS011;10060;48.274;12.214;2024-01-16T11:15:34;7.60;;;4.53;;
19800;SDS011;10060;48.274;12.214;2024-01-16T11:18:39;5.47;;;4.03;;
19800;SDS011;10060;48.274;12.214;2024-01-16T11:21:41;5.57;;;4.60;;
19800;SDS011;10060;48.274;12.214;2024-01-16T11:24:43;5.60;;;4.50;;
19800;SDS011;10060;48.274;12.214;2024-01-16T11:27:46;4.93;;;4.17;;
19800;SDS011;10060;48.274;12.214;2024-01-16T11:30:51;6.67;;;4.13;;
19800;SDS011;10060;48.274;12.214;2024-01-16T11:33:54;6.27;;;3.97;;
19800;SDS011;10060;48.274;12.214;2024-01-16T11:36:56;9.03;;;4.17;;
19800;SDS011;10060;48.274;12.214;2024-01-16T11:43:35;4.87;;;3.70;;
19800;SDS011;10060;48.274;12.214;2024-01-16T11:50:09;4.87;;;3.97;;
19800;SDS011;10060;48.274;12.214;2024-01-16T11:56:59;5.37;;;3.77;;
19800;SDS011;10060;48.274;12.214;2024-01-16T12:00:04;5.57;;;3.50;;
19800;SDS011;10060;48.274;12.214;2024-01-16T12:03:13;3.87;;;3.43;;
19800;SDS011;10060;48.274;12.214;2024-01-16T12:06:18;7.17;;;3.73;;
19800;SDS011;10060;48.274;12.214;2024-01-16T12:09:20;5.07;;;3.40;;
19800;SDS011;10060;48.274;12.214;2024-01-16T12:12:22;7.70;;;3.60;;
19800;SDS011;10060;48.274;12.214;2024-01-16T12:15:24;6.33;;;3.43;;
19800;SDS011;10060;48.274;12.214;2024-01-16T12:18:26;8.67;;;3.27;;
19800;SDS011;10060;48.274;12.214;2024-01-16T12:21:30;4.67;;;3.60;;
19800;SDS011;10060;48.274;12.214;2024-01-16T12:24:32;4.67;;;3.27;;
19800;SDS011;10060;48.274;12.214;2024-01-16T12:27:34;4.23;;;3.10;;
19800;SDS011;10060;48.274;12.214;2024-01-16T12:30:37;5.10;;;3.30;;
19800;SDS011;10060;48.274;12.214;2024-01-16T12:33:39;6.43;;;3.33;;
19800;SDS011;10060;48.274;12.214;2024-01-16T12:36:43;5.60;;;3.10;;
19800;SDS011;10060;48.274;12.214;2024-01-16T12:39:45;3.70;;;3.10;;
19800;SDS011;10060;48.274;12.214;2024-01-16T12:42:47;5.27;;;2.90;;
19800;SDS011;10060;48.274;12.214;2024-01-16T12:45:54;4.83;;;2.90;;
19800;SDS011;10060;48.274;12.214;2024-01-16T12:48:59;4.07;;;2.80;;
19800;SDS011;10060;48.274;12.214;2024-01-16T12:55:25;4.87;;;3.20;;
19800;SDS011;10060;48.274;12.214;2024-01-16T12:58:31;7.00;;;2.97;;
19800;SDS011;10060;48.274;12.214;2024-01-16T13:01:34;7.90;;;2.90;;
19800;SDS011;10060;48.274;12.214;2024-01-16T13:04:36;4.37;;;3.87;;
19800;SDS011;10060;48.274;12.214;2024-01-16T13:07:38;3.07;;;2.80;;
19800;SDS011;10060;48.274;12.214;2024-01-16T13:10:42;6.30;;;2.87;;
19800;SDS011;10060;48.274;12.214;2024-01-16T13:13:44;5.57;;;2.90;;
19800;SDS011;10060;48.274;12.214;2024-01-16T13:16:47;4.47;;;3.00;;
19800;SDS011;10060;48.274;12.214;2024-01-16T13:19:49;5.60;;;2.73;;
19800;SDS011;10060;48.274;12.214;2024-01-16T13:22:51;3.50;;;3.13;;
19800;SDS011;10060;48.274;12.214;2024-01-16T13:25:55;6.93;;;3.53;;
19800;SDS011;10060;48.274;12.214;2024-01-16T13:28:59;3.83;;;3.43;;
19800;SDS011;10060;48.274;12.214;2024-01-16T13:32:01;3.77;;;2.90;;
19800;SDS011;10060;48.274;12.214;2024-01-16T13:35:04;3.97;;;2.90;;
19800;SDS011;10060;48.274;12.214;2024-01-16T13:38:08;4.70;;;3.00;;
19800;SDS011;10060;48.274;12.214;2024-01-16T13:41:11;5.07;;;2.97;;
19800;SDS011;10060;48.274;12.214;2024-01-16T13:44:13;4.97;;;2.97;;
19800;SDS011;10060;48.274;12.214;2024-01-16T13:47:15;4.20;;;3.40;;
19800;SDS011;10060;48.274;12.214;2024-01-16T13:50:19;5.17;;;3.17;;
19800;SDS011;10060;48.274;12.214;2024-01-16T13:53:21;5.03;;;3.00;;
19800;SDS011;10060;48.274;12.214;2024-01-16T13:56:25;5.77;;;3.80;;
19800;SDS011;10060;48.274;12.214;2024-01-16T13:59:27;5.07;;;3.27;;
19800;SDS011;10060;48.274;12.214;2024-01-16T14:02:30;6.50;;;3.43;;
19800;SDS011;10060;48.274;12.214;2024-01-16T14:05:32;7.13;;;3.53;;
19800;SDS011;10060;48.274;12.214;2024-01-16T14:08:34;4.60;;;3.77;;
19800;SDS011;10060;48.274;12.214;2024-01-16T14:11:38;5.57;;;3.93;;
19800;SDS011;10060;48.274;12.214;2024-01-16T14:14:42;7.20;;;3.50;;
19800;SDS011;10060;48.274;12.214;2024-01-16T14:17:44;3.53;;;3.10;;
19800;SDS011;10060;48.274;12.214;2024-01-16T14:20:47;7.00;;;3.30;;
19800;SDS011;10060;48.274;12.214;2024-01-16T14:23:49;5.80;;;3.27;;
19800;SDS011;10060;48.274;12.214;2024-01-16T14:26:52;4.40;;;3.50;;
19800;SDS011;10060;48.274;12.214;2024-01-16T14:29:56;3.93;;;3.10;;
19800;SDS011;10060;48.274;12.214;2024-01-16T14:32:58;5.27;;;3.63;;
19800;SDS011;10060;48.274;12.214;2024-01-16T14:36:01;9.93;;;3.00;;
19800;SDS011;10060;48.274;12.214;2024-01-16T14:39:05;5.67;;;3.43;;
19800;SDS011;10060;48.274;12.214;2024-01-16T14:42:08;6.70;;;3.87;;
19800;SDS011;10060;48.274;12.214;2024-01-16T14:45:10;7.90;;;3.90;;
19800;SDS011;10060;48.274;12.214;2024-01-16T14:48:14;6.50;;;4.00;;
19800;SDS011;10060;48.274;12.214;2024-01-16T14:51:16;6.33;;;3.57;;
19800;SDS011;10060;48.274;12.214;2024-01-16T14:54:18;9.47;;;3.80;;
19800;SDS011;10060;48.274;12.214;2024-01-16T14:57:22;5.43;;;3.43;;
19800;SDS011;10060;48.274;12.214;2024-01-16T15:00:25;4.83;;;3.60;;
19800;SDS011;10060;48.274;12.214;2024-01-16T15:03:27;7.60;;;3.80;;
19800;SDS011;10060;48.274;12.214;2024-01-16T15:06:29;4.07;;;3.53;;
19800;SDS011;10060;48.274;12.214;2024-01-16T15:09:31;4.00;;;3.63;;
19800;SDS011;10060;48.274;12.214;2024-01-16T15:12:35;5.47;;;3.93;;
19800;SDS011;10060;48.274;12.214;2024-01-16T15:15:37;5.47;;;3.93;;
19800;SDS011;10060;48.274;12.214;2024-01-16T15:18:39;6.00;;;4.10;;
19800;SDS011;10060;48.274;12.214;2024-01-16T15:21:42;10.43;;;4.23;;
19800;SDS011;10060;48.274;12.214;2024-01-16T15:24:44;6.33;;;3.77;;
19800;SDS011;10060;48.274;12.214;2024-01-16T15:27:48;4.10;;;3.77;;
19800;SDS011;10060;48.274;12.214;2024-01-16T15:30:53;5.30;;;3.80;;
19800;SDS011;10060;48.274;12.214;2024-01-16T15:33:55;4.80;;;3.30;;
19800;SDS011;10060;48.274;12.214;2024-01-16T15:36:57;4.00;;;3.60;;
19800;SDS011;10060;48.274;12.214;2024-01-16T15:39:59;5.77;;;3.30;;
19800;SDS011;10060;48.274;12.214;2024-01-16T15:43:05;5.90;;;3.50;;
19800;SDS011;10060;48.274;12.214;2024-01-16T15:46:07;5.20;;;3.53;;
19800;SDS011;10060;48.274;12.214;2024-01-16T15:49:09;9.10;;;4.43;;
19800;SDS011;10060;48.274;12.214;2024-01-16T15:52:11;7.90;;;4.50;;
19800;SDS011;10060;48.274;12.214;2024-01-16T15:55:14;9.07;;;4.87;;
19800;SDS011;10060;48.274;12.214;2024-01-16T15:58:18;11.83;;;5.00;;
19800;SDS011;10060;48.274;12.214;2024-01-16T16:01:20;8.27;;;4.50;;
19800;SDS011;10060;48.274;12.214;2024-01-16T16:04:22;4.97;;;4.00;;
19800;SDS011;10060;48.274;12.214;2024-01-16T16:07:24;6.23;;;4.17;;
19800;SDS011;10060;48.274;12.214;2024-01-16T16:10:26;11.23;;;5.10;;
19800;SDS011;10060;48.274;12.214;2024-01-16T16:13:30;10.20;;;4.83;;
19800;SDS011;10060;48.274;12.214;2024-01-16T16:16:32;11.60;;;4.83;;
19800;SDS011;10060;48.274;12.214;2024-01-16T16:19:34;9.10;;;4.70;;
19800;SDS011;10060;48.274;12.214;2024-01-16T16:22:36;7.93;;;4.90;;
19800;SDS011;10060;48.274;12.214;2024-01-16T16:25:39;7.97;;;4.37;;
19800;SDS011;10060;48.274;12.214;2024-01-16T16:28:47;7.30;;;4.57;;
19800;SDS011;10060;48.274;12.214;2024-01-16T16:31:49;9.63;;;4.70;;
19800;SDS011;10060;48.274;12.214;2024-01-16T16:34:51;9.93;;;4.97;;
19800;SDS011;10060;48.274;12.214;2024-01-16T16:37:53;12.20;;;5.67;;
19800;SDS011;10060;48.274;12.214;2024-01-16T16:40:55;7.10;;;4.83;;
19800;SDS011;10060;48.274;12.214;2024-01-16T16:43:59;10.30;;;4.93;;
19800;SDS011;10060;48.274;12.214;2024-01-16T16:47:01;5.83;;;5.00;;
19800;SDS011;10060;48.274;12.214;2024-01-16T16:50:04;9.33;;;5.47;;
19800;SDS011;10060;48.274;12.214;2024-01-16T16:53:06;10.40;;;6.37;;
19800;SDS011;10060;48.274;12.214;2024-01-16T16:56:09;10.50;;;6.20;;
19800;SDS011;10060;48.274;12.214;2024-01-16T16:59:13;10.60;;;6.17;;
19800;SDS011;10060;48.274;12.214;2024-01-16T17:02:16;10.37;;;5.80;;
19800;SDS011;10060;48.274;12.214;2024-01-16T17:05:19;10.60;;;6.53;;
19800;SDS011;10060;48.274;12.214;2024-01-16T17:08:22;10.57;;;6.37;;
19800;SDS011;10060;48.274;12.214;2024-01-16T17:11:24;14.67;;;6.80;;
19800;SDS011;10060;48.274;12.214;2024-01-16T17:14:28;10.90;;;7.13;;
19800;SDS011;10060;48.274;12.214;2024-01-16T17:17:31;11.33;;;6.33;;
19800;SDS011;10060;48.274;12.214;2024-01-16T17:20:35;17.37;;;7.20;;
19800;SDS011;10060;48.274;12.214;2024-01-16T17:23:37;9.67;;;6.53;;
19800;SDS011;10060;48.274;12.214;2024-01-16T17:26:39;14.23;;;6.63;;
19800;SDS011;10060;48.274;12.214;2024-01-16T17:29:44;13.50;;;7.53;;
19800;SDS011;10060;48.274;12.214;2024-01-16T17:32:46;14.53;;;7.80;;
19800;SDS011;10060;48.274;12.214;2024-01-16T17:35:48;16.07;;;6.73;;
19800;SDS011;10060;48.274;12.214;2024-01-16T17:38:50;14.10;;;6.80;;
19800;SDS011;10060;48.274;12.214;2024-01-16T17:41:58;14.10;;;7.60;;
19800;SDS011;10060;48.274;12.214;2024-01-16T17:45:01;10.63;;;7.47;;
19800;SDS011;10060;48.274;12.214;2024-01-16T17:48:03;10.03;;;6.20;;
19800;SDS011;10060;48.274;12.214;2024-01-16T17:51:07;12.40;;;7.30;;
19800;SDS011;10060;48.274;12.214;2024-01-16T17:54:10;12.93;;;6.60;;
19800;SDS011;10060;48.274;12.214;2024-01-16T17:57:13;14.73;;;6.47;;
19800;SDS011;10060;48.274;12.214;2024-01-16T18:00:18;10.50;;;6.33;;
19800;SDS011;10060;48.274;12.214;2024-01-16T18:03:22;12.70;;;6.43;;
19800;SDS011;10060;48.274;12.214;2024-01-16T18:06:28;12.47;;;6.20;;
19800;SDS011;10060;48.274;12.214;2024-01-16T18:09:30;10.33;;;5.43;;
19800;SDS011;10060;48.274;12.214;2024-01-16T18:12:34;10.20;;;6.00;;
19800;SDS011;10060;48.274;12.214;2024-01-16T18:15:38;10.10;;;6.00;;
19800;SDS011;10060;48.274;12.214;2024-01-16T18:18:40;11.23;;;6.03;;